sensor_id;sensor_type;location;lat;lon;timestamp;P1;durP1;ratioP1;P2;durP2;ratioP2
55220;SDS011;41089;51.448;6.604;2022-10-16T00:02:56;3.60;;;2.40;;
55220;SDS011;41089;51.448;6.604;2022-10-16T00:08:57;7.40;;;2.45;;
55220;SDS011;41089;51.448;6.604;2022-10-16T00:14:57;4.75;;;2.90;;
55220;SDS011;41089;51.448;6.604;2022-10-16T00:21:02;6.47;;;2.90;;
55220;SDS011;41089;51.448;6.604;2022-10-16T00:27:06;8.15;;;3.20;;
55220;SDS011;41089;51.448;6.604;2022-10-16T00:33:06;3.50;;;2.40;;
55220;SDS011;41089;51.448;6.604;2022-10-16T00:39:07;4.87;;;2.40;;
55220;SDS011;41089;51.448;6.604;2022-10-16T00:45:08;5.10;;;2.33;;
55220;SDS011;41089;51.448;6.604;2022-10-16T00:51:09;4.40;;;2.33;;
55220;SDS011;41089;51.448;6.604;2022-10-16T00:57:09;5.70;;;2.60;;
55220;SDS011;41089;51.448;6.604;2022-10-16T01:03:30;5.03;;;2.40;;
55220;SDS011;41089;51.448;6.604;2022-10-16T01:09:47;3.75;;;2.55;;
55220;SDS011;41089;51.448;6.604;2022-10-16T01:16:13;13.90;;;2.92;;
55220;SDS011;41089;51.448;6.604;2022-10-16T01:22:18;6.70;;;2.40;;
55220;SDS011;41089;51.448;6.604;2022-10-16T01:28:21;6.80;;;2.72;;
55220;SDS011;41089;51.448;6.604;2022-10-16T01:34:36;4.13;;;2.40;;
55220;SDS011;41089;51.448;6.604;2022-10-16T01:40:39;4.25;;;2.50;;
55220;SDS011;41089;51.448;6.604;2022-10-16T01:46:43;4.85;;;2.03;;
55220;SDS011;41089;51.448;6.604;2022-10-16T01:52:46;5.63;;;2.33;;
55220;SDS011;41089;51.448;6.604;2022-10-16T01:58:50;4.50;;;2.70;;
55220;SDS011;41089;51.448;6.604;2022-10-16T02:04:55;5.63;;;2.65;;
55220;SDS011;41089;51.448;6.604;2022-10-16T02:11:16;9.05;;;2.90;;
55220;SDS011;41089;51.448;6.604;2022-10-16T02:17:17;4.73;;;2.57;;
55220;SDS011;41089;51.448;6.604;2022-10-16T02:29:41;9.30;;;2.33;;
55220;SDS011;41089;51.448;6.604;2022-10-16T02:35:51;3.28;;;2.20;;
55220;SDS011;41089;51.448;6.604;2022-10-16T02:41:53;6.03;;;2.42;;
55220;SDS011;41089;51.448;6.604;2022-10-16T02:47:54;4.57;;;1.90;;
55220;SDS011;41089;51.448;6.604;2022-10-16T02:53:54;3.45;;;1.92;;
55220;SDS011;41089;51.448;6.604;2022-10-16T02:59:55;6.32;;;1.80;;
55220;SDS011;41089;51.448;6.604;2022-10-16T03:05:55;1.90;;;1.45;;
55220;SDS011;41089;51.448;6.604;2022-10-16T03:11:56;4.13;;;1.80;;
55220;SDS011;41089;51.448;6.604;2022-10-16T03:17:59;5.07;;;1.58;;
55220;SDS011;41089;51.448;6.604;2022-10-16T03:24:00;2.03;;;1.35;;
55220;SDS011;41089;51.448;6.604;2022-10-16T03:30:00;1.60;;;1.30;;
55220;SDS011;41089;51.448;6.604;2022-10-16T03:36:00;2.90;;;1.33;;
55220;SDS011;41089;51.448;6.604;2022-10-16T03:42:01;2.40;;;0.90;;
55220;SDS011;41089;51.448;6.604;2022-10-16T03:48:01;3.73;;;1.20;;
55220;SDS011;41089;51.448;6.604;2022-10-16T03:54:03;3.38;;;1.35;;
55220;SDS011;41089;51.448;6.604;2022-10-16T04:00:03;4.20;;;1.30;;
55220;SDS011;41089;51.448;6.604;2022-10-16T04:06:04;1.73;;;1.10;;
55220;SDS011;41089;51.448;6.604;2022-10-16T04:12:05;2.35;;;1.25;;
55220;SDS011;41089;51.448;6.604;2022-10-16T04:18:05;2.20;;;1.33;;
55220;SDS011;41089;51.448;6.604;2022-10-16T04:24:06;2.80;;;1.30;;
55220;SDS011;41089;51.448;6.604;2022-10-16T04:30:07;2.00;;;0.80;;
55220;SDS011;41089;51.448;6.604;2022-10-16T04:36:08;2.50;;;1.08;;
55220;SDS011;41089;51.448;6.604;2022-10-16T04:42:08;2.22;;;1.13;;
55220;SDS011;41089;51.448;6.604;2022-10-16T04:48:09;4.22;;;1.20;;
55220;SDS011;41089;51.448;6.604;2022-10-16T04:54:10;3.10;;;1.10;;
55220;SDS011;41089;51.448;6.604;2022-10-16T05:00:10;5.45;;;1.20;;
55220;SDS011;41089;51.448;6.604;2022-10-16T05:06:11;4.00;;;1.17;;
55220;SDS011;41089;51.448;6.604;2022-10-16T05:12:11;4.70;;;1.43;;
55220;SDS011;41089;51.448;6.604;2022-10-16T05:18:12;1.83;;;1.10;;
55220;SDS011;41089;51.448;6.604;2022-10-16T05:24:12;4.73;;;1.00;;
55220;SDS011;41089;51.448;6.604;2022-10-16T05:30:13;2.38;;;1.20;;
55220;SDS011;41089;51.448;6.604;2022-10-16T05:36:14;1.90;;;1.10;;
55220;SDS011;41089;51.448;6.604;2022-10-16T05:42:15;4.32;;;1.48;;
55220;SDS011;41089;51.448;6.604;2022-10-16T05:48:16;4.55;;;1.33;;
55220;SDS011;41089;51.448;6.604;2022-10-16T05:54:16;4.25;;;1.45;;
55220;SDS011;41089;51.448;6.604;2022-10-16T06:00:17;2.73;;;1.30;;
55220;SDS011;41089;51.448;6.604;2022-10-16T06:06:21;2.92;;;1.98;;
55220;SDS011;41089;51.448;6.604;2022-10-16T06:12:23;4.88;;;1.33;;
55220;SDS011;41089;51.448;6.604;2022-10-16T06:18:24;2.57;;;1.23;;
55220;SDS011;41089;51.448;6.604;2022-10-16T06:24:25;3.85;;;1.33;;
55220;SDS011;41089;51.448;6.604;2022-10-16T06:30:26;4.70;;;1.60;;
55220;SDS011;41089;51.448;6.604;2022-10-16T06:36:27;7.20;;;1.80;;
55220;SDS011;41089;51.448;6.604;2022-10-16T06:42:28;1.98;;;1.73;;
55220;SDS011;41089;51.448;6.604;2022-10-16T06:48:28;3.77;;;1.50;;
55220;SDS011;41089;51.448;6.604;2022-10-16T06:54:29;3.17;;;2.08;;
55220;SDS011;41089;51.448;6.604;2022-10-16T07:00:29;4.67;;;1.80;;
55220;SDS011;41089;51.448;6.604;2022-10-16T07:06:32;3.40;;;2.00;;
55220;SDS011;41089;51.448;6.604;2022-10-16T07:12:33;3.47;;;2.97;;
55220;SDS011;41089;51.448;6.604;2022-10-16T07:18:35;4.77;;;2.13;;
55220;SDS011;41089;51.448;6.604;2022-10-16T07:24:36;2.70;;;1.60;;
55220;SDS011;41089;51.448;6.604;2022-10-16T07:30:36;4.43;;;1.93;;
55220;SDS011;41089;51.448;6.604;2022-10-16T07:36:37;4.10;;;2.33;;
55220;SDS011;41089;51.448;6.604;2022-10-16T07:42:37;4.77;;;1.80;;
55220;SDS011;41089;51.448;6.604;2022-10-16T07:48:38;1.90;;;1.80;;
55220;SDS011;41089;51.448;6.604;2022-10-16T07:54:38;4.10;;;2.30;;
55220;SDS011;41089;51.448;6.604;2022-10-16T08:00:39;2.60;;;1.70;;
55220;SDS011;41089;51.448;6.604;2022-10-16T08:06:40;5.87;;;2.00;;
55220;SDS011;41089;51.448;6.604;2022-10-16T08:12:41;3.22;;;2.30;;
55220;SDS011;41089;51.448;6.604;2022-10-16T08:18:41;4.82;;;2.15;;
55220;SDS011;41089;51.448;6.604;2022-10-16T08:24:41;4.13;;;1.67;;
55220;SDS011;41089;51.448;6.604;2022-10-16T08:30:42;4.53;;;2.05;;
55220;SDS011;41089;51.448;6.604;2022-10-16T08:36:45;2.17;;;1.83;;
55220;SDS011;41089;51.448;6.604;2022-10-16T08:49:10;2.80;;;1.63;;
55220;SDS011;41089;51.448;6.604;2022-10-16T08:55:33;3.60;;;1.30;;
55220;SDS011;41089;51.448;6.604;2022-10-16T09:01:47;3.75;;;1.67;;
55220;SDS011;41089;51.448;6.604;2022-10-16T09:26:54;3.20;;;1.42;;
55220;SDS011;41089;51.448;6.604;2022-10-16T09:32:55;2.40;;;1.42;;
55220;SDS011;41089;51.448;6.604;2022-10-16T09:39:04;6.70;;;1.60;;
55220;SDS011;41089;51.448;6.604;2022-10-16T09:45:19;3.88;;;1.13;;
55220;SDS011;41089;51.448;6.604;2022-10-16T09:51:28;3.95;;;1.40;;
55220;SDS011;41089;51.448;6.604;2022-10-16T09:57:34;12.23;;;1.42;;
55220;SDS011;41089;51.448;6.604;2022-10-16T10:03:37;2.20;;;1.00;;
55220;SDS011;41089;51.448;6.604;2022-10-16T10:09:38;2.90;;;0.90;;
55220;SDS011;41089;51.448;6.604;2022-10-16T10:15:41;18.35;;;2.05;;
55220;SDS011;41089;51.448;6.604;2022-10-16T10:21:41;4.63;;;1.30;;
55220;SDS011;41089;51.448;6.604;2022-10-16T10:27:45;2.67;;;0.82;;
55220;SDS011;41089;51.448;6.604;2022-10-16T10:46:57;3.25;;;1.05;;
55220;SDS011;41089;51.448;6.604;2022-10-16T10:53:45;3.45;;;1.10;;
55220;SDS011;41089;51.448;6.604;2022-10-16T11:00:02;1.25;;;0.63;;
55220;SDS011;41089;51.448;6.604;2022-10-16T11:06:06;3.00;;;1.15;;
55220;SDS011;41089;51.448;6.604;2022-10-16T11:12:17;2.67;;;1.10;;
55220;SDS011;41089;51.448;6.604;2022-10-16T11:18:24;4.65;;;1.02;;
55220;SDS011;41089;51.448;6.604;2022-10-16T11:37:38;1.90;;;0.95;;
55220;SDS011;41089;51.448;6.604;2022-10-16T11:43:43;3.08;;;0.60;;
55220;SDS011;41089;51.448;6.604;2022-10-16T11:49:50;4.55;;;1.55;;
55220;SDS011;41089;51.448;6.604;2022-10-16T11:55:53;4.75;;;1.15;;
55220;SDS011;41089;51.448;6.604;2022-10-16T12:01:56;2.40;;;0.97;;
55220;SDS011;41089;51.448;6.604;2022-10-16T12:08:09;2.67;;;1.30;;
55220;SDS011;41089;51.448;6.604;2022-10-16T12:26:12;1.98;;;0.85;;
55220;SDS011;41089;51.448;6.604;2022-10-16T12:32:23;1.95;;;0.82;;
55220;SDS011;41089;51.448;6.604;2022-10-16T12:38:29;4.00;;;1.00;;
55220;SDS011;41089;51.448;6.604;2022-10-16T12:44:49;2.92;;;1.10;;
55220;SDS011;41089;51.448;6.604;2022-10-16T12:50:50;1.90;;;0.80;;
55220;SDS011;41089;51.448;6.604;2022-10-16T13:28:05;8.15;;;1.55;;
55220;SDS011;41089;51.448;6.604;2022-10-16T13:34:12;3.75;;;1.25;;
55220;SDS011;41089;51.448;6.604;2022-10-16T13:46:24;3.15;;;1.40;;
55220;SDS011;41089;51.448;6.604;2022-10-16T13:52:25;3.03;;;0.88;;
55220;SDS011;41089;51.448;6.604;2022-10-16T14:04:42;1.90;;;0.88;;
55220;SDS011;41089;51.448;6.604;2022-10-16T14:10:42;1.63;;;0.80;;
55220;SDS011;41089;51.448;6.604;2022-10-16T14:16:43;3.00;;;1.00;;
55220;SDS011;41089;51.448;6.604;2022-10-16T14:22:44;3.63;;;1.20;;
55220;SDS011;41089;51.448;6.604;2022-10-16T14:28:46;1.98;;;1.00;;
55220;SDS011;41089;51.448;6.604;2022-10-16T14:34:52;2.88;;;1.02;;
55220;SDS011;41089;51.448;6.604;2022-10-16T14:40:53;3.70;;;1.33;;
55220;SDS011;41089;51.448;6.604;2022-10-16T14:46:57;2.85;;;1.10;;
55220;SDS011;41089;51.448;6.604;2022-10-16T14:52:59;3.85;;;1.08;;
55220;SDS011;41089;51.448;6.604;2022-10-16T14:59:00;4.85;;;1.42;;
55220;SDS011;41089;51.448;6.604;2022-10-16T15:05:04;4.82;;;1.30;;
55220;SDS011;41089;51.448;6.604;2022-10-16T15:11:18;3.90;;;1.40;;
55220;SDS011;41089;51.448;6.604;2022-10-16T15:17:19;3.60;;;1.25;;
55220;SDS011;41089;51.448;6.604;2022-10-16T15:23:20;5.00;;;1.17;;
55220;SDS011;41089;51.448;6.604;2022-10-16T15:29:22;4.93;;;1.48;;
55220;SDS011;41089;51.448;6.604;2022-10-16T15:35:22;4.30;;;1.40;;
55220;SDS011;41089;51.448;6.604;2022-10-16T15:41:23;3.88;;;1.60;;
55220;SDS011;41089;51.448;6.604;2022-10-16T15:47:23;5.88;;;2.80;;
55220;SDS011;41089;51.448;6.604;2022-10-16T15:53:24;5.50;;;3.50;;
55220;SDS011;41089;51.448;6.604;2022-10-16T15:59:24;3.97;;;3.10;;
55220;SDS011;41089;51.448;6.604;2022-10-16T16:05:25;7.53;;;3.20;;
55220;SDS011;41089;51.448;6.604;2022-10-16T16:11:25;8.20;;;3.28;;
55220;SDS011;41089;51.448;6.604;2022-10-16T16:17:26;7.35;;;4.10;;
55220;SDS011;41089;51.448;6.604;2022-10-16T16:23:26;5.63;;;3.33;;
55220;SDS011;41089;51.448;6.604;2022-10-16T16:29:27;7.13;;;3.63;;
55220;SDS011;41089;51.448;6.604;2022-10-16T16:35:27;9.68;;;3.80;;
55220;SDS011;41089;51.448;6.604;2022-10-16T16:41:28;5.47;;;2.87;;
55220;SDS011;41089;51.448;6.604;2022-10-16T16:47:30;13.07;;;3.85;;
55220;SDS011;41089;51.448;6.604;2022-10-16T16:53:30;7.68;;;3.95;;
55220;SDS011;41089;51.448;6.604;2022-10-16T16:59:32;8.50;;;3.70;;
55220;SDS011;41089;51.448;6.604;2022-10-16T17:05:33;7.53;;;3.33;;
55220;SDS011;41089;51.448;6.604;2022-10-16T17:11:33;12.33;;;4.80;;
55220;SDS011;41089;51.448;6.604;2022-10-16T17:17:34;6.70;;;3.50;;
55220;SDS011;41089;51.448;6.604;2022-10-16T17:23:35;9.40;;;5.00;;
55220;SDS011;41089;51.448;6.604;2022-10-16T17:29:36;9.80;;;5.55;;
55220;SDS011;41089;51.448;6.604;2022-10-16T17:35:40;9.03;;;5.87;;
55220;SDS011;41089;51.448;6.604;2022-10-16T17:41:42;12.15;;;6.90;;
55220;SDS011;41089;51.448;6.604;2022-10-16T17:47:42;12.50;;;6.63;;
55220;SDS011;41089;51.448;6.604;2022-10-16T17:53:46;9.60;;;5.63;;
55220;SDS011;41089;51.448;6.604;2022-10-16T17:59:47;6.43;;;4.90;;
55220;SDS011;41089;51.448;6.604;2022-10-16T18:05:48;11.43;;;9.27;;
55220;SDS011;41089;51.448;6.604;2022-10-16T18:11:48;20.83;;;15.43;;
55220;SDS011;41089;51.448;6.604;2022-10-16T18:17:51;18.02;;;12.82;;
55220;SDS011;41089;51.448;6.604;2022-10-16T18:23:52;19.30;;;13.63;;
55220;SDS011;41089;51.448;6.604;2022-10-16T18:29:53;22.70;;;14.45;;
55220;SDS011;41089;51.448;6.604;2022-10-16T18:36:17;17.42;;;10.95;;
55220;SDS011;41089;51.448;6.604;2022-10-16T18:42:18;22.67;;;12.80;;
55220;SDS011;41089;51.448;6.604;2022-10-16T18:48:19;16.27;;;9.07;;
55220;SDS011;41089;51.448;6.604;2022-10-16T18:54:19;13.60;;;10.77;;
55220;SDS011;41089;51.448;6.604;2022-10-16T19:00:20;6.60;;;3.83;;
55220;SDS011;41089;51.448;6.604;2022-10-16T19:06:21;7.68;;;3.35;;
55220;SDS011;41089;51.448;6.604;2022-10-16T19:12:22;7.75;;;3.50;;
55220;SDS011;41089;51.448;6.604;2022-10-16T19:18:22;28.60;;;19.60;;
55220;SDS011;41089;51.448;6.604;2022-10-16T19:24:23;27.13;;;17.95;;
55220;SDS011;41089;51.448;6.604;2022-10-16T19:30:23;14.18;;;7.90;;
55220;SDS011;41089;51.448;6.604;2022-10-16T19:36:25;9.63;;;5.75;;
55220;SDS011;41089;51.448;6.604;2022-10-16T19:42:30;11.40;;;6.00;;
55220;SDS011;41089;51.448;6.604;2022-10-16T19:48:30;10.82;;;5.93;;
55220;SDS011;41089;51.448;6.604;2022-10-16T19:54:31;11.82;;;7.88;;
55220;SDS011;41089;51.448;6.604;2022-10-16T20:00:32;8.10;;;5.82;;
55220;SDS011;41089;51.448;6.604;2022-10-16T20:06:33;8.60;;;4.17;;
55220;SDS011;41089;51.448;6.604;2022-10-16T20:12:33;8.65;;;3.65;;
55220;SDS011;41089;51.448;6.604;2022-10-16T20:18:34;5.22;;;3.63;;
55220;SDS011;41089;51.448;6.604;2022-10-16T20:24:34;4.57;;;4.07;;
55220;SDS011;41089;51.448;6.604;2022-10-16T20:30:36;5.68;;;3.90;;
55220;SDS011;41089;51.448;6.604;2022-10-16T20:36:38;5.55;;;4.13;;
55220;SDS011;41089;51.448;6.604;2022-10-16T20:42:39;5.05;;;3.72;;
55220;SDS011;41089;51.448;6.604;2022-10-16T20:48:40;8.43;;;5.37;;
55220;SDS011;41089;51.448;6.604;2022-10-16T20:54:43;7.32;;;4.88;;
55220;SDS011;41089;51.448;6.604;2022-10-16T21:00:44;6.70;;;4.60;;
55220;SDS011;41089;51.448;6.604;2022-10-16T21:06:45;9.67;;;5.37;;
55220;SDS011;41089;51.448;6.604;2022-10-16T21:12:45;7.57;;;3.80;;
55220;SDS011;41089;51.448;6.604;2022-10-16T21:18:46;6.50;;;3.92;;
55220;SDS011;41089;51.448;6.604;2022-10-16T21:24:46;6.57;;;3.60;;
55220;SDS011;41089;51.448;6.604;2022-10-16T21:30:46;6.20;;;4.50;;
55220;SDS011;41089;51.448;6.604;2022-10-16T21:36:48;5.97;;;4.10;;
55220;SDS011;41089;51.448;6.604;2022-10-16T21:42:48;8.02;;;3.78;;
55220;SDS011;41089;51.448;6.604;2022-10-16T21:48:52;9.43;;;3.87;;
55220;SDS011;41089;51.448;6.604;2022-10-16T21:54:53;4.15;;;3.67;;
55220;SDS011;41089;51.448;6.604;2022-10-16T22:00:55;8.57;;;3.58;;
55220;SDS011;41089;51.448;6.604;2022-10-16T22:06:56;4.55;;;3.83;;
55220;SDS011;41089;51.448;6.604;2022-10-16T22:12:56;3.80;;;3.30;;
55220;SDS011;41089;51.448;6.604;2022-10-16T22:18:56;3.50;;;3.20;;
55220;SDS011;41089;51.448;6.604;2022-10-16T22:24:58;4.22;;;3.83;;
55220;SDS011;41089;51.448;6.604;2022-10-16T22:31:06;4.15;;;3.33;;
55220;SDS011;41089;51.448;6.604;2022-10-16T22:37:09;4.97;;;3.72;;
55220;SDS011;41089;51.448;6.604;2022-10-16T22:43:10;4.63;;;3.40;;
55220;SDS011;41089;51.448;6.604;2022-10-16T22:49:10;4.22;;;3.42;;
55220;SDS011;41089;51.448;6.604;2022-10-16T22:55:11;4.80;;;4.27;;
55220;SDS011;41089;51.448;6.604;2022-10-16T23:01:35;7.20;;;4.38;;
55220;SDS011;41089;51.448;6.604;2022-10-16T23:07:33;7.40;;;4.20;;
55220;SDS011;41089;51.448;6.604;2022-10-16T23:13:35;7.30;;;4.82;;
55220;SDS011;41089;51.448;6.604;2022-10-16T23:19:36;9.60;;;4.50;;
55220;SDS011;41089;51.448;6.604;2022-10-16T23:25:43;6.90;;;4.50;;
55220;SDS011;41089;51.448;6.604;2022-10-16T23:31:45;7.78;;;5.75;;
55220;SDS011;41089;51.448;6.604;2022-10-16T23:37:45;7.60;;;5.57;;
55220;SDS011;41089;51.448;6.604;2022-10-16T23:43:46;5.93;;;5.32;;
55220;SDS011;41089;51.448;6.604;2022-10-16T23:49:47;8.93;;;5.82;;
55220;SDS011;41089;51.448;6.604;2022-10-16T23:55:47;7.87;;;5.40;;
